Archival Weather

Heathrow

London, United Kingdom (EGLL)

Report from: Wednesday, December 6, 2023 6:50 AM GMT
Current time: Saturday, March 2, 2024 11:02 AM GMT

Current weather – Weather history – Daily summaries
Weather forecast

Temperature1.0°C (33.8°F)
Dew point1.0°C (33.8°F)
Winds 2 kts (1 m/s, 2.3 mph) West-Northwest (300°)
Visibility5.6 mi. (9 km)
Clouds Sky clear
Altimeter30.06 in.Hg (1018 mB)
Relative humidity100 %
Density altitude-1,771 ft. (-540 m)
Remarks Fully automated report
No clouds detected
Flight conditions Visual Meteorological Conditions
Raw dataEGLL 060650Z AUTO 30002KT 9000 NCD 01/01 Q1018 TEMPO 2000 BR
An error has occurred. This application may no longer respond until reloaded. Reload 🗙